createdAt,value
2019-02-27T05:00:40.369Z,0.00
2019-02-27T05:01:40.322Z,0.00
2019-02-27T05:02:40.320Z,0.00
2019-02-27T05:03:40.302Z,0.00
2019-02-27T05:04:40.308Z,0.00
2019-02-27T05:05:41.418Z,0.00
2019-02-27T05:06:40.274Z,0.00
2019-02-27T05:07:40.260Z,0.00
2019-02-27T05:08:40.251Z,0.00
2019-02-27T05:09:40.261Z,0.00
2019-02-27T05:10:40.621Z,0.00
2019-02-27T05:11:40.221Z,0.00
2019-02-27T05:12:40.203Z,0.00
2019-02-27T05:13:40.193Z,0.00
2019-02-27T05:14:40.218Z,0.00
2019-02-27T05:15:40.172Z,0.00
2019-02-27T05:16:40.175Z,0.00
2019-02-27T05:17:40.150Z,0.00
2019-02-27T05:18:40.140Z,0.00
2019-02-27T05:19:40.131Z,0.00
2019-02-27T05:20:40.146Z,0.00
2019-02-27T05:21:40.109Z,0.00
2019-02-27T05:22:40.117Z,0.00
2019-02-27T05:23:40.095Z,0.00
2019-02-27T05:24:40.963Z,0.00
2019-02-27T05:25:47.198Z,0.00
2019-02-27T05:26:40.063Z,0.00
2019-02-27T05:27:40.047Z,0.00
2019-02-27T05:28:40.038Z,0.00
2019-02-27T05:29:40.025Z,0.00
2019-02-27T05:30:40.043Z,0.00
2019-02-27T05:31:40.015Z,0.00
2019-02-27T05:32:40.002Z,0.00
2019-02-27T05:33:40.015Z,0.00
2019-02-27T05:34:39.977Z,0.00
2019-02-27T05:35:40.010Z,0.00
2019-02-27T05:36:39.963Z,0.00
2019-02-27T05:37:39.944Z,0.00
2019-02-27T05:38:41.079Z,0.00
2019-02-27T05:39:39.943Z,0.00
2019-02-27T05:40:39.956Z,0.00
2019-02-27T05:41:39.905Z,0.00
2019-02-27T05:42:39.899Z,0.00
2019-02-27T05:43:39.884Z,0.00
2019-02-27T05:44:39.888Z,0.00
2019-02-27T05:45:39.883Z,0.00
2019-02-27T05:46:39.855Z,0.00
2019-02-27T05:47:44.683Z,0.00
2019-02-27T05:48:40.829Z,0.00
2019-02-27T05:49:39.823Z,0.00
2019-02-27T05:50:39.829Z,0.00
2019-02-27T05:51:39.814Z,0.00
2019-02-27T05:52:39.787Z,0.00
2019-02-27T05:53:39.788Z,4.00
2019-02-27T05:54:39.779Z,4.00
2019-02-27T05:55:39.821Z,0.00
2019-02-27T05:56:39.769Z,0.00
2019-02-27T05:57:39.747Z,4.00
2019-02-27T05:58:39.736Z,4.00
2019-02-27T05:59:39.716Z,4.00
2019-02-27T06:00:39.729Z,4.00
2019-02-27T06:01:39.702Z,4.00
2019-02-27T06:02:41.902Z,4.00
2019-02-27T06:03:40.675Z,8.00
2019-02-27T06:04:39.665Z,8.00
2019-02-27T06:05:39.676Z,12.00
2019-02-27T06:06:39.642Z,12.00
2019-02-27T06:07:39.634Z,16.00
2019-02-27T06:08:39.632Z,20.00
2019-02-27T06:09:41.459Z,24.00
2019-02-27T06:10:39.628Z,24.00
2019-02-27T06:11:39.594Z,32.00
2019-02-27T06:12:40.878Z,32.00
2019-02-27T06:13:39.569Z,40.00
2019-02-27T06:14:39.561Z,44.00
2019-02-27T06:15:39.571Z,52.00
2019-02-27T06:16:40.854Z,56.00
2019-02-27T06:17:43.412Z,64.00
2019-02-27T06:18:39.518Z,72.00
2019-02-27T06:19:39.511Z,80.00
2019-02-27T06:20:41.938Z,88.00
2019-02-27T06:21:39.495Z,96.00
2019-02-27T06:22:39.478Z,108.00
2019-02-27T06:23:39.470Z,116.00
2019-02-27T06:24:39.453Z,124.00
2019-02-27T06:25:39.466Z,136.00
2019-02-27T06:26:39.435Z,148.00
2019-02-27T06:27:39.934Z,156.00
2019-02-27T06:28:39.417Z,168.00
2019-02-27T06:29:39.403Z,180.00
2019-02-27T06:30:39.415Z,192.00
2019-02-27T06:31:39.604Z,208.00
2019-02-27T06:32:39.372Z,220.00
2019-02-27T06:33:39.371Z,232.00
2019-02-27T06:34:39.354Z,248.00
2019-02-27T06:35:39.386Z,268.00
2019-02-27T06:36:42.789Z,280.00
2019-02-27T06:37:39.334Z,296.00
2019-02-27T06:38:39.311Z,308.00
2019-02-27T06:39:39.304Z,328.00
2019-02-27T06:40:42.064Z,344.00
2019-02-27T06:41:40.002Z,360.00
2019-02-27T06:42:39.269Z,376.00
2019-02-27T06:43:39.261Z,396.00
2019-02-27T06:44:39.866Z,412.00
2019-02-27T06:45:39.240Z,428.00
2019-02-27T06:46:39.240Z,448.00
2019-02-27T06:47:39.243Z,472.00
2019-02-27T06:48:43.143Z,492.00
2019-02-27T06:49:39.199Z,524.00
2019-02-27T06:50:39.203Z,584.00
2019-02-27T06:51:39.194Z,680.00
2019-02-27T06:52:40.180Z,772.00
2019-02-27T06:53:39.152Z,816.00
2019-02-27T06:54:39.152Z,808.00
2019-02-27T06:55:39.131Z,796.00
2019-02-27T06:56:39.151Z,812.00
2019-02-27T06:57:41.284Z,852.00
2019-02-27T06:58:39.102Z,904.00
2019-02-27T06:59:39.102Z,944.00
2019-02-27T07:00:39.083Z,956.00
2019-02-27T07:01:39.096Z,956.00
2019-02-27T07:02:39.059Z,952.00
2019-02-27T07:03:39.056Z,956.00
2019-02-27T07:04:39.623Z,976.00
2019-02-27T07:05:39.027Z,1012.00
2019-02-27T07:06:39.046Z,1016.00
2019-02-27T07:07:39.011Z,1028.00
2019-02-27T07:08:38.994Z,1032.00
2019-02-27T07:09:38.991Z,1028.00
2019-02-27T07:10:38.988Z,1012.00
2019-02-27T07:11:38.968Z,992.00
2019-02-27T07:12:38.983Z,980.00
2019-02-27T07:13:38.942Z,980.00
2019-02-27T07:14:39.833Z,988.00
2019-02-27T07:15:38.928Z,1024.00
2019-02-27T07:16:38.936Z,1068.00
2019-02-27T07:17:38.902Z,1092.00
2019-02-27T07:18:41.480Z,1096.00
2019-02-27T07:19:38.881Z,1132.00
2019-02-27T07:20:38.871Z,1212.00
2019-02-27T07:21:38.896Z,1284.00
2019-02-27T07:22:38.864Z,1344.00
2019-02-27T07:23:38.844Z,1392.00
2019-02-27T07:24:38.842Z,1440.00
2019-02-27T07:25:41.980Z,1444.00
2019-02-27T07:26:38.834Z,1400.00
2019-02-27T07:27:38.801Z,1364.00
2019-02-27T07:28:43.166Z,1332.00
2019-02-27T07:29:38.780Z,1332.00
2019-02-27T07:30:39.761Z,1332.00
2019-02-27T07:31:38.779Z,1320.00
2019-02-27T07:32:38.753Z,1296.00
2019-02-27T07:33:40.561Z,1272.00
2019-02-27T07:34:38.747Z,1256.00
2019-02-27T07:35:38.721Z,1284.00
2019-02-27T07:36:39.218Z,1340.00
2019-02-27T07:37:38.696Z,1436.00
2019-02-27T07:38:38.690Z,1584.00
2019-02-27T07:39:38.690Z,1728.00
2019-02-27T07:40:42.734Z,1792.00
2019-02-27T07:41:38.675Z,1776.00
2019-02-27T07:42:38.645Z,1740.00
2019-02-27T07:43:38.648Z,1732.00
2019-02-27T07:44:38.627Z,1700.00
2019-02-27T07:45:38.617Z,1724.00
2019-02-27T07:46:38.621Z,1768.00
2019-02-27T07:47:38.593Z,1776.00
2019-02-27T07:48:38.582Z,1768.00
2019-02-27T07:49:38.580Z,1760.00
2019-02-27T07:50:38.560Z,1768.00
2019-02-27T07:51:38.575Z,1812.00
2019-02-27T07:52:38.548Z,1872.00
2019-02-27T07:53:38.531Z,1956.00
2019-02-27T07:54:38.523Z,2040.00
2019-02-27T07:55:38.515Z,2088.00
2019-02-27T07:56:38.527Z,2120.00
2019-02-27T07:57:38.490Z,2124.00
2019-02-27T07:58:38.480Z,2132.00
2019-02-27T07:59:38.791Z,2136.00
2019-02-27T08:00:38.461Z,2176.00
2019-02-27T08:01:43.763Z,2264.00
2019-02-27T08:02:39.442Z,2384.00
2019-02-27T08:03:38.436Z,2472.00
2019-02-27T08:04:38.421Z,2552.00
2019-02-27T08:05:38.409Z,2592.00
2019-02-27T08:06:38.521Z,2612.00
2019-02-27T08:07:38.386Z,2640.00
2019-02-27T08:08:38.385Z,2736.00
2019-02-27T08:09:38.369Z,2816.00
2019-02-27T08:10:38.361Z,2908.00
2019-02-27T08:11:38.369Z,3012.00
2019-02-27T08:12:38.365Z,3148.00
2019-02-27T08:13:38.322Z,3280.00
2019-02-27T08:14:38.313Z,3416.00
2019-02-27T08:15:38.306Z,3544.00
2019-02-27T08:16:38.298Z,3668.00
2019-02-27T08:17:38.792Z,3824.00
2019-02-27T08:18:38.336Z,3976.00
2019-02-27T08:19:38.259Z,4084.00
2019-02-27T08:20:38.248Z,4172.00
2019-02-27T08:21:38.243Z,4276.00
2019-02-27T08:22:38.270Z,4368.00
2019-02-27T08:23:38.225Z,4456.00
2019-02-27T08:24:38.207Z,4480.00
2019-02-27T08:25:38.195Z,4500.00
2019-02-27T08:26:38.184Z,4532.00
2019-02-27T08:27:40.753Z,4536.00
2019-02-27T08:28:38.166Z,4508.00
2019-02-27T08:29:38.157Z,4508.00
2019-02-27T08:30:38.144Z,4600.00
2019-02-27T08:31:38.132Z,4640.00
2019-02-27T08:32:38.144Z,4644.00
2019-02-27T08:33:38.116Z,4740.00
2019-02-27T08:34:38.101Z,4888.00
2019-02-27T08:35:38.091Z,4988.00
2019-02-27T08:36:38.075Z,5012.00
2019-02-27T08:37:38.105Z,5048.00
2019-02-27T08:38:38.060Z,5128.00
2019-02-27T08:39:38.051Z,5256.00
2019-02-27T08:40:38.035Z,5388.00
2019-02-27T08:41:38.023Z,5480.00
2019-02-27T08:42:40.249Z,5548.00
2019-02-27T08:43:37.998Z,5580.00
2019-02-27T08:44:38.005Z,5616.00
2019-02-27T08:45:37.983Z,5624.00
2019-02-27T08:46:37.967Z,5648.00
2019-02-27T08:47:37.984Z,5672.00
2019-02-27T08:48:37.943Z,5692.00
2019-02-27T08:49:37.930Z,5772.00
2019-02-27T08:50:37.931Z,5840.00
2019-02-27T08:51:39.766Z,5880.00
2019-02-27T08:52:37.953Z,5936.00
2019-02-27T08:53:37.890Z,5948.00
2019-02-27T08:54:37.876Z,6068.00
2019-02-27T08:55:39.218Z,6208.00
2019-02-27T08:56:37.855Z,6380.00
2019-02-27T08:57:37.865Z,6500.00
2019-02-27T08:58:37.853Z,6692.00
2019-02-27T08:59:40.026Z,6896.00
2019-02-27T09:00:37.812Z,7200.00
2019-02-27T09:01:37.959Z,7748.00
2019-02-27T09:02:39.654Z,8444.00
2019-02-27T09:03:37.790Z,9020.00
2019-02-27T09:04:37.782Z,9568.00
2019-02-27T09:05:37.757Z,11168.00
2019-02-27T09:06:37.748Z,14400.00
2019-02-27T09:07:37.758Z,19328.00
2019-02-27T09:08:37.732Z,26304.00
2019-02-27T09:09:37.728Z,32160.00
2019-02-27T09:10:37.702Z,33696.00
2019-02-27T09:11:40.066Z,34240.00
2019-02-27T09:12:37.715Z,33696.00
2019-02-27T09:13:37.674Z,31168.00
2019-02-27T09:14:37.667Z,31040.00
2019-02-27T09:15:37.653Z,31488.00
2019-02-27T09:16:37.638Z,31104.00
2019-02-27T09:17:37.658Z,31584.00
2019-02-27T09:18:37.617Z,33344.00
2019-02-27T09:19:37.610Z,34368.00
2019-02-27T09:20:37.612Z,34752.00
2019-02-27T09:21:37.588Z,34528.00
2019-02-27T09:22:37.612Z,34464.00
2019-02-27T09:23:37.570Z,33856.00
2019-02-27T09:24:37.551Z,34080.00
2019-02-27T09:25:37.545Z,35776.00
2019-02-27T09:26:37.548Z,37440.00
2019-02-27T09:27:37.566Z,36800.00
2019-02-27T09:28:37.516Z,35296.00
2019-02-27T09:29:37.500Z,36832.00
2019-02-27T09:30:37.486Z,37152.00
2019-02-27T09:31:38.460Z,34912.00
2019-02-27T09:32:37.493Z,34112.00
2019-02-27T09:33:39.022Z,36192.00
2019-02-27T09:34:37.454Z,35584.00
2019-02-27T09:35:38.744Z,34368.00
2019-02-27T09:36:37.422Z,36736.00
2019-02-27T09:37:39.390Z,37408.00
2019-02-27T09:38:37.403Z,38624.00
2019-02-27T09:39:37.394Z,40128.00
2019-02-27T09:40:38.941Z,40896.00
2019-02-27T09:41:37.369Z,40416.00
2019-02-27T09:42:37.383Z,40864.00
2019-02-27T09:43:37.350Z,39424.00
2019-02-27T09:44:37.338Z,36000.00
2019-02-27T09:45:37.331Z,36032.00
2019-02-27T09:46:37.334Z,38400.00
2019-02-27T09:47:37.326Z,39104.00
2019-02-27T09:48:37.297Z,40416.00
2019-02-27T09:49:37.961Z,40704.00
2019-02-27T09:50:37.274Z,39808.00
2019-02-27T09:51:37.268Z,38560.00
2019-02-27T09:52:37.301Z,39424.00
2019-02-27T09:53:37.497Z,41312.00
2019-02-27T09:54:37.233Z,42176.00
2019-02-27T09:55:37.227Z,43712.00
2019-02-27T09:56:37.212Z,41600.00
2019-02-27T09:57:37.221Z,41760.00
2019-02-27T09:58:37.221Z,41920.00
2019-02-27T09:59:37.196Z,28576.00
2019-02-27T10:00:37.170Z,35776.00
2019-02-27T10:01:37.165Z,42816.00
2019-02-27T10:02:37.149Z,44128.00
2019-02-27T10:03:37.161Z,44256.00
2019-02-27T10:04:37.127Z,43968.00
2019-02-27T10:05:37.551Z,43072.00
2019-02-27T10:06:37.107Z,43328.00
2019-02-27T10:07:37.097Z,43136.00
2019-02-27T10:08:37.106Z,41920.00
2019-02-27T10:09:37.076Z,42464.00
2019-02-27T10:10:37.070Z,42912.00
2019-02-27T10:11:37.075Z,44448.00
2019-02-27T10:12:37.045Z,46784.00
2019-02-27T10:13:37.938Z,44480.00
2019-02-27T10:14:37.033Z,37152.00
2019-02-27T10:15:37.021Z,37376.00
2019-02-27T10:16:37.007Z,42880.00
2019-02-27T10:17:37.010Z,37024.00
2019-02-27T10:18:37.004Z,39552.00
2019-02-27T10:19:36.981Z,42912.00
2019-02-27T10:20:37.875Z,41056.00
2019-02-27T10:21:36.956Z,40832.00
2019-02-27T10:22:36.943Z,40416.00
2019-02-27T10:23:36.982Z,39616.00
2019-02-27T10:24:37.592Z,41184.00
2019-02-27T10:25:36.913Z,42944.00
2019-02-27T10:26:36.903Z,44704.00
2019-02-27T10:27:36.897Z,46560.00
2019-02-27T10:28:39.617Z,47104.00
2019-02-27T10:29:36.883Z,46368.00
2019-02-27T10:30:36.863Z,46432.00
2019-02-27T10:31:36.855Z,45760.00
2019-02-27T10:32:37.259Z,46784.00
2019-02-27T10:33:36.852Z,48384.00
2019-02-27T10:34:36.835Z,47904.00
2019-02-27T10:35:36.826Z,45216.00
2019-02-27T10:36:39.228Z,45344.00
2019-02-27T10:37:36.858Z,46464.00
2019-02-27T10:38:40.191Z,45536.00
2019-02-27T10:39:37.573Z,46560.00
2019-02-27T10:40:36.768Z,48000.00
2019-02-27T10:41:36.759Z,48128.00
2019-02-27T10:42:36.785Z,46656.00
2019-02-27T10:43:36.754Z,44608.00
2019-02-27T10:44:36.720Z,45376.00
2019-02-27T10:45:36.711Z,47648.00
2019-02-27T10:46:36.709Z,50016.00
2019-02-27T10:47:39.806Z,50272.00
2019-02-27T10:48:36.949Z,48224.00
2019-02-27T10:49:38.250Z,47680.00
2019-02-27T10:50:36.659Z,47040.00
2019-02-27T10:51:36.657Z,44352.00
2019-02-27T10:52:36.646Z,43744.00
2019-02-27T10:53:36.694Z,44928.00
2019-02-27T10:54:37.073Z,47136.00
2019-02-27T10:55:36.611Z,49280.00
2019-02-27T10:56:36.600Z,47680.00
2019-02-27T10:57:38.407Z,45536.00
2019-02-27T10:58:36.603Z,44128.00
2019-02-27T10:59:36.595Z,45504.00
2019-02-27T11:00:36.571Z,48608.00
2019-02-27T11:01:37.065Z,48800.00
2019-02-27T11:02:36.542Z,45536.00
2019-02-27T11:03:36.569Z,46112.00
2019-02-27T11:04:38.937Z,49504.00
2019-02-27T11:05:36.520Z,51136.00
2019-02-27T11:06:37.702Z,49696.00
2019-02-27T11:07:36.496Z,47392.00
2019-02-27T11:08:36.502Z,45984.00
2019-02-27T11:09:38.314Z,47968.00
2019-02-27T11:10:36.466Z,51104.00
2019-02-27T11:11:36.462Z,53024.00
2019-02-27T11:12:36.443Z,53344.00
2019-02-27T11:13:36.472Z,52704.00
2019-02-27T11:14:36.425Z,50624.00
2019-02-27T11:15:41.087Z,49984.00
2019-02-27T11:16:37.418Z,50784.00
2019-02-27T11:17:36.410Z,50688.00
2019-02-27T11:18:36.410Z,50304.00
2019-02-27T11:19:36.390Z,50144.00
2019-02-27T11:20:36.366Z,48352.00
2019-02-27T11:21:36.358Z,49184.00
2019-02-27T11:22:36.348Z,52000.00
2019-02-27T11:23:40.844Z,52416.00
2019-02-27T11:24:37.326Z,51904.00
2019-02-27T11:25:36.328Z,51392.00
2019-02-27T11:26:36.312Z,50976.00
2019-02-27T11:27:38.857Z,51520.00
2019-02-27T11:28:36.309Z,52896.00
2019-02-27T11:29:36.279Z,53792.00
2019-02-27T11:30:37.063Z,52064.00
2019-02-27T11:31:36.277Z,50560.00
2019-02-27T11:32:36.251Z,51008.00
2019-02-27T11:33:36.261Z,54176.00
2019-02-27T11:34:36.260Z,53600.00
2019-02-27T11:35:36.228Z,46848.00
2019-02-27T11:36:39.079Z,44896.00
2019-02-27T11:37:36.218Z,47392.00
2019-02-27T11:38:36.198Z,47136.00
2019-02-27T11:39:36.206Z,50016.00
2019-02-27T11:40:36.172Z,51168.00
2019-02-27T11:41:36.165Z,49408.00
2019-02-27T11:42:36.156Z,49984.00
2019-02-27T11:43:37.945Z,50336.00
2019-02-27T11:44:36.197Z,48736.00
2019-02-27T11:45:36.127Z,45536.00
2019-02-27T11:46:38.217Z,44896.00
2019-02-27T11:47:36.105Z,45792.00
2019-02-27T11:48:36.097Z,46752.00
2019-02-27T11:49:36.276Z,40960.00
2019-02-27T11:50:36.082Z,24672.00
2019-02-27T11:51:36.071Z,11056.00
2019-02-27T11:52:36.070Z,11292.00
2019-02-27T11:53:36.582Z,21664.00
2019-02-27T11:54:36.058Z,32672.00
2019-02-27T11:55:36.040Z,39904.00
2019-02-27T11:56:36.020Z,43616.00
2019-02-27T11:57:36.011Z,46976.00
2019-02-27T11:58:38.468Z,48928.00
2019-02-27T11:59:36.013Z,50240.00
2019-02-27T12:00:35.993Z,49504.00
2019-02-27T12:01:35.975Z,48384.00
2019-02-27T12:02:37.774Z,47232.00
2019-02-27T12:03:35.952Z,49152.00
2019-02-27T12:04:35.967Z,48640.00
2019-02-27T12:05:35.931Z,48704.00
2019-02-27T12:06:35.939Z,49728.00
2019-02-27T12:07:35.922Z,48960.00
2019-02-27T12:08:35.907Z,49632.00
2019-02-27T12:09:35.930Z,46240.00
2019-02-27T12:10:35.886Z,45632.00
2019-02-27T12:11:35.875Z,46336.00
2019-02-27T12:12:35.865Z,48096.00
2019-02-27T12:13:35.865Z,50240.00
2019-02-27T12:14:35.863Z,50432.00
2019-02-27T12:15:35.836Z,47392.00
2019-02-27T12:16:35.826Z,46176.00
2019-02-27T12:17:35.826Z,47712.00
2019-02-27T12:18:35.819Z,47200.00
2019-02-27T12:19:35.822Z,48384.00
2019-02-27T12:20:35.787Z,48640.00
2019-02-27T12:21:35.786Z,45216.00
2019-02-27T12:22:35.991Z,44064.00
2019-02-27T12:23:35.757Z,47104.00
2019-02-27T12:24:35.778Z,47968.00
2019-02-27T12:25:35.748Z,48576.00
2019-02-27T12:26:37.541Z,48416.00
2019-02-27T12:27:48.705Z,47040.00
2019-02-27T12:28:36.711Z,46912.00
2019-02-27T12:29:35.707Z,45312.00
2019-02-27T12:30:37.497Z,43072.00
2019-02-27T12:31:35.691Z,37056.00
2019-02-27T12:32:35.671Z,19392.00
2019-02-27T12:33:35.667Z,14208.00
2019-02-27T12:34:37.088Z,13536.00
2019-02-27T12:35:35.668Z,13124.00
2019-02-27T12:36:35.633Z,12872.00
2019-02-27T12:37:36.492Z,12720.00
2019-02-27T12:38:35.783Z,12536.00
2019-02-27T12:39:35.707Z,12384.00
2019-02-27T12:40:35.622Z,12248.00
2019-02-27T12:41:35.590Z,12120.00
2019-02-27T12:42:37.322Z,11980.00
2019-02-27T12:43:35.578Z,11872.00
2019-02-27T12:44:35.566Z,11712.00
2019-02-27T12:45:35.628Z,11560.00
2019-02-27T12:46:36.978Z,11348.00
2019-02-27T12:47:37.640Z,11084.00
2019-02-27T12:48:36.516Z,10776.00
2019-02-27T12:49:35.510Z,10504.00
2019-02-27T12:50:35.521Z,10160.00
2019-02-27T12:51:38.343Z,9656.00
2019-02-27T12:52:35.488Z,8880.00
2019-02-27T12:53:35.476Z,7924.00
2019-02-27T12:54:35.465Z,6916.00
2019-02-27T12:55:36.382Z,5772.00
2019-02-27T12:56:35.441Z,4592.00
2019-02-27T12:57:35.430Z,3468.00
2019-02-27T12:58:35.419Z,2656.00
2019-02-27T12:59:35.433Z,2232.00
2019-02-27T13:00:35.424Z,1964.00
2019-02-27T13:01:35.390Z,1840.00
2019-02-27T13:02:35.916Z,1784.00
2019-02-27T13:03:35.370Z,1764.00
2019-02-27T13:04:35.359Z,1724.00
2019-02-27T13:05:35.389Z,1708.00
2019-02-27T13:06:37.276Z,1704.00
2019-02-27T13:07:35.328Z,1652.00
2019-02-27T13:08:35.318Z,1628.00
2019-02-27T13:09:35.308Z,1628.00
2019-02-27T13:10:35.318Z,1600.00
2019-02-27T13:11:35.306Z,1576.00
2019-02-27T13:12:37.217Z,1564.00
2019-02-27T13:13:35.275Z,1552.00
2019-02-27T13:14:35.254Z,1544.00
2019-02-27T13:15:35.267Z,1520.00
2019-02-27T13:16:35.233Z,1508.00
2019-02-27T13:17:35.242Z,1504.00
2019-02-27T13:18:35.218Z,1496.00
2019-02-27T13:19:35.205Z,1492.00
2019-02-27T13:20:35.210Z,1476.00
2019-02-27T13:21:35.183Z,1464.00
2019-02-27T13:22:35.177Z,1456.00
2019-02-27T13:23:36.322Z,1444.00
2019-02-27T13:24:35.159Z,1436.00
2019-02-27T13:25:35.163Z,1432.00
2019-02-27T13:26:35.426Z,1428.00
2019-02-27T13:27:35.121Z,1420.00
2019-02-27T13:28:35.109Z,1408.00
2019-02-27T13:29:35.112Z,1404.00
2019-02-27T13:30:35.115Z,1400.00
2019-02-27T13:31:35.076Z,1388.00
2019-02-27T13:32:35.071Z,1384.00
2019-02-27T13:33:35.456Z,1380.00
2019-02-27T13:34:35.044Z,1368.00
2019-02-27T13:35:35.063Z,1364.00
2019-02-27T13:36:35.026Z,1360.00
2019-02-27T13:37:35.015Z,1352.00
2019-02-27T13:38:36.883Z,1344.00
2019-02-27T13:39:35.006Z,1336.00
2019-02-27T13:40:35.761Z,1328.00
2019-02-27T13:41:34.983Z,1328.00
2019-02-27T13:42:34.963Z,1320.00
2019-02-27T13:43:34.956Z,1316.00
2019-02-27T13:44:35.311Z,1308.00
2019-02-27T13:45:34.950Z,1300.00
2019-02-27T13:46:34.918Z,1288.00
2019-02-27T13:47:34.917Z,1280.00
2019-02-27T13:48:37.356Z,1276.00
2019-02-27T13:49:34.891Z,1272.00
2019-02-27T13:50:34.878Z,1260.00
2019-02-27T13:51:37.207Z,1248.00
2019-02-27T13:52:34.854Z,1240.00
2019-02-27T13:53:34.853Z,1232.00
2019-02-27T13:54:38.025Z,1224.00
2019-02-27T13:55:34.824Z,1220.00
2019-02-27T13:56:34.835Z,1212.00
2019-02-27T13:57:34.798Z,1208.00
2019-02-27T13:58:36.459Z,1196.00
2019-02-27T13:59:35.905Z,1192.00
2019-02-27T14:00:34.768Z,1184.00
2019-02-27T14:01:35.048Z,1176.00
2019-02-27T14:02:38.256Z,1168.00
2019-02-27T14:03:35.534Z,1164.00
2019-02-27T14:04:34.722Z,1164.00
2019-02-27T14:05:35.993Z,1156.00
2019-02-27T14:06:34.728Z,1148.00
2019-02-27T14:07:34.697Z,1144.00
2019-02-27T14:08:34.677Z,1136.00
2019-02-27T14:09:34.667Z,1132.00
2019-02-27T14:10:34.665Z,1124.00
2019-02-27T14:11:34.676Z,1112.00
2019-02-27T14:12:36.396Z,1104.00
2019-02-27T14:13:34.623Z,1096.00
2019-02-27T14:14:34.618Z,1088.00
2019-02-27T14:15:34.602Z,1084.00
2019-02-27T14:16:35.403Z,1076.00
2019-02-27T14:17:34.594Z,1068.00
2019-02-27T14:18:34.569Z,1060.00
2019-02-27T14:19:36.439Z,1052.00
2019-02-27T14:20:34.548Z,1048.00
2019-02-27T14:21:35.600Z,1044.00
2019-02-27T14:22:34.525Z,1036.00
2019-02-27T14:23:34.516Z,1032.00
2019-02-27T14:24:34.520Z,1028.00
2019-02-27T14:25:34.494Z,1024.00
2019-02-27T14:26:34.512Z,1020.00
2019-02-27T14:27:34.473Z,1016.00
2019-02-27T14:28:34.462Z,1012.00
2019-02-27T14:29:34.451Z,1012.00
2019-02-27T14:30:35.527Z,1008.00
2019-02-27T14:31:34.453Z,1008.00
2019-02-27T14:32:34.422Z,1000.00
2019-02-27T14:33:34.409Z,996.00
2019-02-27T14:34:34.399Z,992.00
2019-02-27T14:35:36.331Z,988.00
2019-02-27T14:36:34.421Z,980.00
2019-02-27T14:37:34.367Z,976.00
2019-02-27T14:38:34.356Z,972.00
2019-02-27T14:39:34.364Z,968.00
2019-02-27T14:40:37.733Z,964.00
2019-02-27T14:41:34.343Z,960.00
2019-02-27T14:42:34.313Z,956.00
2019-02-27T14:43:34.327Z,952.00
2019-02-27T14:44:34.291Z,952.00
2019-02-27T14:45:39.430Z,948.00
2019-02-27T14:46:35.288Z,944.00
2019-02-27T14:47:34.259Z,944.00
2019-02-27T14:48:34.253Z,940.00
2019-02-27T14:49:34.260Z,936.00
2019-02-27T14:50:34.855Z,932.00
2019-02-27T14:51:34.243Z,928.00
2019-02-27T14:52:34.206Z,924.00
2019-02-27T14:53:34.196Z,920.00
2019-02-27T14:54:34.192Z,916.00
2019-02-27T14:55:35.929Z,912.00
2019-02-27T14:56:34.196Z,908.00
2019-02-27T14:57:34.166Z,900.00
2019-02-27T14:58:34.142Z,896.00
2019-02-27T14:59:34.230Z,892.00
2019-02-27T15:00:34.125Z,888.00
2019-02-27T15:01:34.142Z,884.00
2019-02-27T15:02:34.117Z,876.00
2019-02-27T15:03:34.094Z,872.00
2019-02-27T15:04:34.081Z,868.00
2019-02-27T15:05:34.072Z,864.00
2019-02-27T15:06:34.102Z,860.00
2019-02-27T15:07:34.054Z,852.00
2019-02-27T15:08:34.043Z,852.00
2019-02-27T15:09:36.561Z,844.00
2019-02-27T15:10:34.020Z,840.00
2019-02-27T15:11:34.031Z,836.00
2019-02-27T15:12:34.016Z,828.00
2019-02-27T15:13:33.996Z,828.00
2019-02-27T15:14:33.974Z,820.00
2019-02-27T15:15:33.965Z,812.00
2019-02-27T15:16:33.954Z,808.00
2019-02-27T15:17:33.974Z,804.00
2019-02-27T15:18:33.937Z,796.00
2019-02-27T15:19:35.444Z,792.00
2019-02-27T15:20:34.654Z,788.00
2019-02-27T15:21:33.902Z,784.00
2019-02-27T15:22:33.907Z,780.00
2019-02-27T15:23:33.905Z,776.00
2019-02-27T15:24:34.936Z,772.00
2019-02-27T15:25:33.876Z,768.00
2019-02-27T15:26:33.854Z,760.00
2019-02-27T15:27:33.863Z,760.00
2019-02-27T15:28:34.063Z,752.00
2019-02-27T15:29:33.843Z,748.00
2019-02-27T15:30:33.815Z,744.00
2019-02-27T15:31:33.796Z,744.00
2019-02-27T15:32:33.924Z,740.00
2019-02-27T15:33:35.927Z,736.00
2019-02-27T15:34:33.762Z,728.00
2019-02-27T15:35:33.752Z,728.00
2019-02-27T15:36:33.753Z,720.00
2019-02-27T15:37:37.183Z,720.00
2019-02-27T15:38:33.727Z,720.00
2019-02-27T15:39:33.724Z,724.00
2019-02-27T15:40:33.700Z,732.00
2019-02-27T15:41:35.446Z,736.00
2019-02-27T15:42:33.699Z,748.00
2019-02-27T15:43:33.672Z,760.00
2019-02-27T15:44:34.518Z,768.00
2019-02-27T15:45:33.666Z,776.00
2019-02-27T15:46:33.647Z,780.00
2019-02-27T15:47:33.858Z,784.00
2019-02-27T15:48:33.629Z,788.00
2019-02-27T15:49:33.606Z,784.00
2019-02-27T15:50:33.604Z,784.00
2019-02-27T15:51:33.584Z,780.00
2019-02-27T15:52:34.219Z,768.00
2019-02-27T15:53:33.568Z,768.00
2019-02-27T15:54:33.555Z,768.00
2019-02-27T15:55:35.236Z,768.00
2019-02-27T15:56:33.552Z,764.00
2019-02-27T15:57:33.574Z,760.00
2019-02-27T15:58:33.511Z,748.00
2019-02-27T15:59:33.521Z,732.00
2019-02-27T16:00:33.490Z,720.00
2019-02-27T16:01:33.500Z,712.00
2019-02-27T16:02:34.027Z,696.00
2019-02-27T16:03:33.468Z,676.00
2019-02-27T16:04:33.453Z,664.00
2019-02-27T16:05:33.439Z,648.00
2019-02-27T16:06:33.442Z,632.00
2019-02-27T16:07:33.437Z,624.00
2019-02-27T16:08:33.417Z,612.00
2019-02-27T16:09:33.399Z,604.00
2019-02-27T16:10:33.388Z,600.00
2019-02-27T16:11:33.402Z,592.00
2019-02-27T16:12:33.390Z,592.00
2019-02-27T16:13:34.686Z,584.00
2019-02-27T16:14:33.369Z,572.00
2019-02-27T16:15:33.334Z,564.00
2019-02-27T16:16:33.325Z,552.00
2019-02-27T16:17:33.333Z,536.00
2019-02-27T16:18:33.940Z,528.00
2019-02-27T16:19:33.307Z,516.00
2019-02-27T16:20:33.287Z,508.00
2019-02-27T16:21:33.319Z,504.00
2019-02-27T16:22:33.298Z,496.00
2019-02-27T16:23:37.203Z,492.00
2019-02-27T16:24:33.239Z,488.00
2019-02-27T16:25:33.240Z,476.00
2019-02-27T16:26:33.234Z,468.00
2019-02-27T16:27:35.385Z,460.00
2019-02-27T16:28:33.228Z,448.00
2019-02-27T16:29:33.205Z,440.00
2019-02-27T16:30:33.181Z,436.00
2019-02-27T16:31:33.182Z,428.00
2019-02-27T16:32:33.159Z,420.00
2019-02-27T16:33:33.174Z,408.00
2019-02-27T16:34:34.085Z,400.00
2019-02-27T16:35:33.133Z,392.00
2019-02-27T16:36:36.144Z,384.00
2019-02-27T16:37:33.116Z,372.00
2019-02-27T16:38:33.113Z,368.00
2019-02-27T16:39:33.080Z,360.00
2019-02-27T16:40:33.077Z,352.00
2019-02-27T16:41:33.065Z,344.00
2019-02-27T16:42:33.057Z,328.00
2019-02-27T16:43:33.061Z,316.00
2019-02-27T16:44:33.033Z,300.00
2019-02-27T16:45:36.480Z,288.00
2019-02-27T16:46:33.009Z,280.00
2019-02-27T16:47:33.015Z,272.00
2019-02-27T16:48:34.501Z,264.00
2019-02-27T16:49:32.975Z,252.00
2019-02-27T16:50:32.966Z,244.00
2019-02-27T16:51:34.685Z,236.00
2019-02-27T16:52:32.946Z,224.00
2019-02-27T16:53:32.977Z,212.00
2019-02-27T16:54:32.923Z,204.00
2019-02-27T16:55:35.988Z,192.00
2019-02-27T16:56:32.944Z,180.00
2019-02-27T16:57:32.891Z,172.00
2019-02-27T16:58:33.767Z,160.00
2019-02-27T16:59:32.874Z,152.00
2019-02-27T17:00:32.870Z,140.00
2019-02-27T17:01:32.847Z,128.00
2019-02-27T17:02:35.502Z,120.00
2019-02-27T17:03:33.852Z,112.00
2019-02-27T17:04:34.286Z,104.00
2019-02-27T17:05:32.804Z,96.00
2019-02-27T17:06:32.794Z,88.00
2019-02-27T17:07:32.781Z,80.00
2019-02-27T17:08:33.040Z,76.00
2019-02-27T17:09:32.763Z,68.00
2019-02-27T17:10:32.762Z,64.00
2019-02-27T17:11:33.203Z,52.00
2019-02-27T17:12:32.732Z,52.00